sensor_id;sensor_type;location;lat;lon;timestamp;pressure;altitude;pressure_sealevel;temperature;humidity
43814;BME280;29669;55.706;37.656;2023-03-19T00:01:02;101403.53;;;-2.09;nan
43814;BME280;29669;55.706;37.656;2023-03-19T00:03:30;101409.50;;;-2.10;nan
43814;BME280;29669;55.706;37.656;2023-03-19T00:05:58;101405.28;;;-2.11;nan
43814;BME280;29669;55.706;37.656;2023-03-19T00:08:26;101393.53;;;-2.15;nan
43814;BME280;29669;55.706;37.656;2023-03-19T00:10:54;101398.44;;;-2.09;nan
43814;BME280;29669;55.706;37.656;2023-03-19T00:13:23;101392.56;;;-2.11;nan
43814;BME280;29669;55.706;37.656;2023-03-19T00:15:51;101385.81;;;-2.12;nan
43814;BME280;29669;55.706;37.656;2023-03-19T00:18:19;101395.97;;;-2.10;nan
43814;BME280;29669;55.706;37.656;2023-03-19T00:20:47;101384.94;;;-2.11;nan
43814;BME280;29669;55.706;37.656;2023-03-19T00:23:15;101382.34;;;-2.09;nan
43814;BME280;29669;55.706;37.656;2023-03-19T00:25:43;101389.88;;;-2.05;nan
43814;BME280;29669;55.706;37.656;2023-03-19T00:28:11;101384.78;;;-2.05;nan
43814;BME280;29669;55.706;37.656;2023-03-19T00:30:38;101373.88;;;-2.10;nan
43814;BME280;29669;55.706;37.656;2023-03-19T00:33:07;101381.44;;;-2.07;nan
43814;BME280;29669;55.706;37.656;2023-03-19T00:35:38;101376.59;;;-2.16;nan
43814;BME280;29669;55.706;37.656;2023-03-19T00:38:06;101368.19;;;-2.18;nan
43814;BME280;29669;55.706;37.656;2023-03-19T00:40:34;101372.50;;;-2.20;nan
43814;BME280;29669;55.706;37.656;2023-03-19T00:43:02;101369.84;;;-2.17;nan
43814;BME280;29669;55.706;37.656;2023-03-19T00:45:32;101360.59;;;-2.19;nan
43814;BME280;29669;55.706;37.656;2023-03-19T00:48:02;101370.03;;;-2.23;nan
43814;BME280;29669;55.706;37.656;2023-03-19T00:50:30;101355.88;;;-2.33;nan
43814;BME280;29669;55.706;37.656;2023-03-19T00:52:59;101356.88;;;-2.37;nan
43814;BME280;29669;55.706;37.656;2023-03-19T00:55:26;101366.28;;;-2.40;nan
43814;BME280;29669;55.706;37.656;2023-03-19T00:57:54;101360.53;;;-2.47;nan
43814;BME280;29669;55.706;37.656;2023-03-19T01:00:22;101358.06;;;-2.48;nan
43814;BME280;29669;55.706;37.656;2023-03-19T01:02:51;101361.53;;;-2.52;nan
43814;BME280;29669;55.706;37.656;2023-03-19T01:05:19;101359.78;;;-2.50;nan
43814;BME280;29669;55.706;37.656;2023-03-19T01:07:47;101353.13;;;-2.54;nan
43814;BME280;29669;55.706;37.656;2023-03-19T01:10:20;101353.22;;;-2.57;nan
43814;BME280;29669;55.706;37.656;2023-03-19T01:12:52;101350.63;;;-2.56;nan
43814;BME280;29669;55.706;37.656;2023-03-19T01:15:20;101351.44;;;-2.55;nan
43814;BME280;29669;55.706;37.656;2023-03-19T01:17:51;101355.47;;;-2.47;nan
43814;BME280;29669;55.706;37.656;2023-03-19T01:20:20;101352.06;;;-2.47;nan
43814;BME280;29669;55.706;37.656;2023-03-19T01:22:50;101350.47;;;-2.50;nan
43814;BME280;29669;55.706;37.656;2023-03-19T01:25:18;101346.34;;;-2.54;nan
43814;BME280;29669;55.706;37.656;2023-03-19T01:27:57;101343.13;;;-2.60;nan
43814;BME280;29669;55.706;37.656;2023-03-19T01:30:25;101350.00;;;-2.64;nan
43814;BME280;29669;55.706;37.656;2023-03-19T01:33:11;101345.03;;;-2.68;nan
43814;BME280;29669;55.706;37.656;2023-03-19T01:35:58;101346.03;;;-2.74;nan
43814;BME280;29669;55.706;37.656;2023-03-19T01:38:36;101345.28;;;-2.77;nan
43814;BME280;29669;55.706;37.656;2023-03-19T01:41:08;101347.13;;;-2.82;nan
43814;BME280;29669;55.706;37.656;2023-03-19T01:43:36;101339.53;;;-2.84;nan
43814;BME280;29669;55.706;37.656;2023-03-19T01:46:33;101347.19;;;-2.86;nan
43814;BME280;29669;55.706;37.656;2023-03-19T01:49:14;101345.78;;;-2.96;nan
43814;BME280;29669;55.706;37.656;2023-03-19T01:51:50;101348.47;;;-3.02;nan
43814;BME280;29669;55.706;37.656;2023-03-19T01:54:29;101346.91;;;-3.07;nan
43814;BME280;29669;55.706;37.656;2023-03-19T01:57:18;101341.91;;;-3.10;nan
43814;BME280;29669;55.706;37.656;2023-03-19T02:00:05;101336.91;;;-3.13;nan
43814;BME280;29669;55.706;37.656;2023-03-19T02:02:46;101334.38;;;-3.13;nan
43814;BME280;29669;55.706;37.656;2023-03-19T02:05:36;101333.66;;;-3.18;nan
43814;BME280;29669;55.706;37.656;2023-03-19T02:08:11;101334.41;;;-3.15;nan
43814;BME280;29669;55.706;37.656;2023-03-19T02:10:45;101328.59;;;-3.18;nan
43814;BME280;29669;55.706;37.656;2023-03-19T02:13:15;101325.31;;;-3.23;nan
43814;BME280;29669;55.706;37.656;2023-03-19T02:15:43;101327.06;;;-3.25;nan
43814;BME280;29669;55.706;37.656;2023-03-19T02:18:11;101317.84;;;-3.28;nan
43814;BME280;29669;55.706;37.656;2023-03-19T02:20:45;101313.66;;;-3.30;nan
43814;BME280;29669;55.706;37.656;2023-03-19T02:26:15;101309.53;;;-3.34;nan
43814;BME280;29669;55.706;37.656;2023-03-19T02:28:49;101316.38;;;-3.38;nan
43814;BME280;29669;55.706;37.656;2023-03-19T02:31:29;101301.28;;;-3.44;nan
43814;BME280;29669;55.706;37.656;2023-03-19T02:34:14;101318.88;;;-3.36;nan
43814;BME280;29669;55.706;37.656;2023-03-19T02:37:00;101313.94;;;-3.42;nan
43814;BME280;29669;55.706;37.656;2023-03-19T02:40:00;101313.16;;;-3.44;nan
43814;BME280;29669;55.706;37.656;2023-03-19T02:42:31;101309.84;;;-3.46;nan
43814;BME280;29669;55.706;37.656;2023-03-19T02:45:04;101303.03;;;-3.46;nan
43814;BME280;29669;55.706;37.656;2023-03-19T02:47:35;101308.19;;;-3.49;nan
43814;BME280;29669;55.706;37.656;2023-03-19T02:50:03;101297.97;;;-3.46;nan
43814;BME280;29669;55.706;37.656;2023-03-19T02:52:31;101304.63;;;-3.42;nan
43814;BME280;29669;55.706;37.656;2023-03-19T02:54:59;101299.56;;;-3.42;nan
43814;BME280;29669;55.706;37.656;2023-03-19T02:57:27;101295.31;;;-3.41;nan
43814;BME280;29669;55.706;37.656;2023-03-19T02:59:55;101291.19;;;-3.45;nan
43814;BME280;29669;55.706;37.656;2023-03-19T03:02:22;101301.25;;;-3.42;nan
43814;BME280;29669;55.706;37.656;2023-03-19T03:04:50;101295.56;;;-3.50;nan
43814;BME280;29669;55.706;37.656;2023-03-19T03:07:18;101294.75;;;-3.52;nan
43814;BME280;29669;55.706;37.656;2023-03-19T03:09:46;101294.91;;;-3.58;nan
43814;BME280;29669;55.706;37.656;2023-03-19T03:12:14;101290.69;;;-3.59;nan
43814;BME280;29669;55.706;37.656;2023-03-19T03:14:42;101287.19;;;-3.54;nan
43814;BME280;29669;55.706;37.656;2023-03-19T03:17:10;101282.13;;;-3.54;nan
43814;BME280;29669;55.706;37.656;2023-03-19T03:19:38;101290.50;;;-3.52;nan
43814;BME280;29669;55.706;37.656;2023-03-19T03:22:06;101288.00;;;-3.53;nan
43814;BME280;29669;55.706;37.656;2023-03-19T03:24:34;101292.09;;;-3.48;nan
43814;BME280;29669;55.706;37.656;2023-03-19T03:27:02;101287.16;;;-3.52;nan
43814;BME280;29669;55.706;37.656;2023-03-19T03:29:30;101283.94;;;-3.60;nan
43814;BME280;29669;55.706;37.656;2023-03-19T03:31:58;101282.28;;;-3.61;nan
43814;BME280;29669;55.706;37.656;2023-03-19T03:34:27;101286.41;;;-3.57;nan
43814;BME280;29669;55.706;37.656;2023-03-19T03:36:56;101275.44;;;-3.59;nan
43814;BME280;29669;55.706;37.656;2023-03-19T03:39:24;101279.53;;;-3.52;nan
43814;BME280;29669;55.706;37.656;2023-03-19T03:41:52;101288.59;;;-3.44;nan
43814;BME280;29669;55.706;37.656;2023-03-19T03:44:21;101282.50;;;-3.37;nan
43814;BME280;29669;55.706;37.656;2023-03-19T03:46:49;101274.88;;;-3.37;nan
43814;BME280;29669;55.706;37.656;2023-03-19T03:49:19;101283.09;;;-3.27;nan
43814;BME280;29669;55.706;37.656;2023-03-19T03:51:47;101277.06;;;-3.22;nan
43814;BME280;29669;55.706;37.656;2023-03-19T03:54:16;101282.88;;;-3.18;nan
43814;BME280;29669;55.706;37.656;2023-03-19T03:56:44;101280.34;;;-3.18;nan
43814;BME280;29669;55.706;37.656;2023-03-19T03:59:12;101276.16;;;-3.21;nan
43814;BME280;29669;55.706;37.656;2023-03-19T04:01:40;101270.28;;;-3.23;nan
43814;BME280;29669;55.706;37.656;2023-03-19T04:04:08;101276.22;;;-3.22;nan
43814;BME280;29669;55.706;37.656;2023-03-19T04:06:38;101275.31;;;-3.21;nan
43814;BME280;29669;55.706;37.656;2023-03-19T04:09:35;101276.97;;;-3.19;nan
43814;BME280;29669;55.706;37.656;2023-03-19T04:12:05;101270.94;;;-3.15;nan
43814;BME280;29669;55.706;37.656;2023-03-19T04:14:35;101264.03;;;-3.10;nan
43814;BME280;29669;55.706;37.656;2023-03-19T04:17:03;101263.16;;;-3.09;nan
43814;BME280;29669;55.706;37.656;2023-03-19T04:19:34;101263.69;;;-2.98;nan
43814;BME280;29669;55.706;37.656;2023-03-19T04:22:05;101270.19;;;-2.88;nan
43814;BME280;29669;55.706;37.656;2023-03-19T04:24:34;101263.34;;;-2.84;nan
43814;BME280;29669;55.706;37.656;2023-03-19T04:27:03;101260.56;;;-2.76;nan
43814;BME280;29669;55.706;37.656;2023-03-19T04:29:30;101259.56;;;-2.71;nan
43814;BME280;29669;55.706;37.656;2023-03-19T04:31:59;101249.31;;;-2.68;nan
43814;BME280;29669;55.706;37.656;2023-03-19T04:34:27;101252.53;;;-2.61;nan
43814;BME280;29669;55.706;37.656;2023-03-19T04:36:56;101253.16;;;-2.55;nan
43814;BME280;29669;55.706;37.656;2023-03-19T04:39:27;101256.25;;;-2.45;nan
43814;BME280;29669;55.706;37.656;2023-03-19T04:41:56;101256.94;;;-2.39;nan
43814;BME280;29669;55.706;37.656;2023-03-19T04:44:31;101256.94;;;-2.39;nan
43814;BME280;29669;55.706;37.656;2023-03-19T04:47:01;101250.78;;;-2.32;nan
43814;BME280;29669;55.706;37.656;2023-03-19T04:49:35;101253.03;;;-2.23;nan
43814;BME280;29669;55.706;37.656;2023-03-19T04:52:03;101250.38;;;-2.18;nan
43814;BME280;29669;55.706;37.656;2023-03-19T04:54:31;101256.91;;;-2.11;nan
43814;BME280;29669;55.706;37.656;2023-03-19T04:56:59;101247.41;;;-2.05;nan
43814;BME280;29669;55.706;37.656;2023-03-19T04:59:35;101253.91;;;-1.96;nan
43814;BME280;29669;55.706;37.656;2023-03-19T05:02:04;101245.19;;;-1.89;nan
43814;BME280;29669;55.706;37.656;2023-03-19T05:04:34;101245.84;;;-1.82;nan
43814;BME280;29669;55.706;37.656;2023-03-19T05:07:09;101255.78;;;-1.75;nan
43814;BME280;29669;55.706;37.656;2023-03-19T05:09:40;101247.00;;;-1.66;nan
43814;BME280;29669;55.706;37.656;2023-03-19T05:12:11;101241.75;;;-1.62;nan
43814;BME280;29669;55.706;37.656;2023-03-19T05:14:44;101238.91;;;-1.53;nan
43814;BME280;29669;55.706;37.656;2023-03-19T05:17:18;101242.09;;;-1.46;nan
43814;BME280;29669;55.706;37.656;2023-03-19T05:20:15;101245.22;;;-1.38;nan
43814;BME280;29669;55.706;37.656;2023-03-19T05:22:51;101237.34;;;-1.32;nan
43814;BME280;29669;55.706;37.656;2023-03-19T05:25:33;101238.81;;;-1.25;nan
43814;BME280;29669;55.706;37.656;2023-03-19T05:28:06;101231.00;;;-1.21;nan
43814;BME280;29669;55.706;37.656;2023-03-19T05:30:34;101239.22;;;-1.13;nan
43814;BME280;29669;55.706;37.656;2023-03-19T05:33:25;101234.84;;;-1.09;nan
43814;BME280;29669;55.706;37.656;2023-03-19T05:35:59;101228.75;;;-1.05;nan
43814;BME280;29669;55.706;37.656;2023-03-19T05:38:42;101219.19;;;-0.99;nan
43814;BME280;29669;55.706;37.656;2023-03-19T05:41:17;101220.63;;;-0.91;nan
43814;BME280;29669;55.706;37.656;2023-03-19T05:43:56;101219.56;;;-0.86;nan
43814;BME280;29669;55.706;37.656;2023-03-19T05:46:40;101220.91;;;-0.76;nan
43814;BME280;29669;55.706;37.656;2023-03-19T05:49:09;101216.63;;;-0.75;nan
43814;BME280;29669;55.706;37.656;2023-03-19T05:51:40;101214.84;;;-0.73;nan
43814;BME280;29669;55.706;37.656;2023-03-19T05:54:09;101207.03;;;-0.69;nan
43814;BME280;29669;55.706;37.656;2023-03-19T05:56:55;101200.09;;;-0.65;nan
43814;BME280;29669;55.706;37.656;2023-03-19T05:59:52;101200.75;;;-0.60;nan
43814;BME280;29669;55.706;37.656;2023-03-19T06:02:33;101201.38;;;-0.54;nan
43814;BME280;29669;55.706;37.656;2023-03-19T06:05:25;101196.81;;;-0.46;nan
43814;BME280;29669;55.706;37.656;2023-03-19T06:08:00;101178.97;;;-0.46;nan
43814;BME280;29669;55.706;37.656;2023-03-19T06:10:41;101187.88;;;-0.34;nan
43814;BME280;29669;55.706;37.656;2023-03-19T06:13:10;101181.69;;;-0.29;nan
43814;BME280;29669;55.706;37.656;2023-03-19T06:15:47;101182.34;;;-0.24;nan
43814;BME280;29669;55.706;37.656;2023-03-19T06:18:25;101175.50;;;-0.23;nan
43814;BME280;29669;55.706;37.656;2023-03-19T06:20:54;101175.44;;;-0.22;nan
43814;BME280;29669;55.706;37.656;2023-03-19T06:23:22;101166.25;;;-0.26;nan
43814;BME280;29669;55.706;37.656;2023-03-19T06:25:50;101167.66;;;-0.19;nan
43814;BME280;29669;55.706;37.656;2023-03-19T06:28:21;101164.00;;;-0.12;nan
43814;BME280;29669;55.706;37.656;2023-03-19T06:30:49;101159.59;;;-0.08;nan
43814;BME280;29669;55.706;37.656;2023-03-19T06:33:40;101161.13;;;-0.04;nan
43814;BME280;29669;55.706;37.656;2023-03-19T06:36:10;101150.09;;;-0.05;nan
43814;BME280;29669;55.706;37.656;2023-03-19T06:38:38;101158.38;;;0.00;nan
43814;BME280;29669;55.706;37.656;2023-03-19T06:41:09;101153.72;;;0.10;nan
43814;BME280;29669;55.706;37.656;2023-03-19T06:43:40;101152.56;;;0.17;nan
43814;BME280;29669;55.706;37.656;2023-03-19T06:46:09;101158.19;;;0.25;nan
43814;BME280;29669;55.706;37.656;2023-03-19T06:48:41;101149.44;;;0.31;nan
43814;BME280;29669;55.706;37.656;2023-03-19T06:51:12;101147.53;;;0.36;nan
43814;BME280;29669;55.706;37.656;2023-03-19T06:53:39;101143.22;;;0.38;nan
43814;BME280;29669;55.706;37.656;2023-03-19T06:56:10;101149.81;;;0.42;nan
43814;BME280;29669;55.706;37.656;2023-03-19T06:58:38;101145.44;;;0.45;nan
43814;BME280;29669;55.706;37.656;2023-03-19T07:01:06;101147.66;;;0.53;nan
43814;BME280;29669;55.706;37.656;2023-03-19T07:03:34;101139.84;;;0.56;nan
43814;BME280;29669;55.706;37.656;2023-03-19T07:06:02;101143.03;;;0.61;nan
43814;BME280;29669;55.706;37.656;2023-03-19T07:08:30;101141.94;;;0.66;nan
43814;BME280;29669;55.706;37.656;2023-03-19T07:11:05;101144.09;;;0.75;nan
43814;BME280;29669;55.706;37.656;2023-03-19T07:13:35;101132.28;;;0.73;nan
43814;BME280;29669;55.706;37.656;2023-03-19T07:16:04;101129.38;;;0.80;nan
43814;BME280;29669;55.706;37.656;2023-03-19T07:18:32;101132.72;;;0.82;nan
43814;BME280;29669;55.706;37.656;2023-03-19T07:21:01;101131.53;;;0.89;nan
43814;BME280;29669;55.706;37.656;2023-03-19T07:23:31;101126.16;;;0.95;nan
43814;BME280;29669;55.706;37.656;2023-03-19T07:25:58;101123.41;;;1.00;nan
43814;BME280;29669;55.706;37.656;2023-03-19T07:28:26;101126.81;;;0.99;nan
43814;BME280;29669;55.706;37.656;2023-03-19T07:30:54;101122.34;;;1.04;nan
43814;BME280;29669;55.706;37.656;2023-03-19T07:33:22;101126.56;;;1.05;nan
43814;BME280;29669;55.706;37.656;2023-03-19T07:35:51;101125.28;;;1.14;nan
43814;BME280;29669;55.706;37.656;2023-03-19T07:38:20;101126.28;;;1.11;nan
43814;BME280;29669;55.706;37.656;2023-03-19T07:40:49;101119.50;;;1.10;nan
43814;BME280;29669;55.706;37.656;2023-03-19T07:43:28;101116.53;;;1.19;nan
43814;BME280;29669;55.706;37.656;2023-03-19T07:45:56;101117.06;;;1.26;nan
43814;BME280;29669;55.706;37.656;2023-03-19T07:48:25;101117.84;;;1.28;nan
43814;BME280;29669;55.706;37.656;2023-03-19T07:50:53;101116.63;;;1.35;nan
43814;BME280;29669;55.706;37.656;2023-03-19T07:53:21;101115.50;;;1.40;nan
43814;BME280;29669;55.706;37.656;2023-03-19T07:55:49;101108.00;;;1.37;nan
43814;BME280;29669;55.706;37.656;2023-03-19T07:58:17;101115.50;;;1.40;nan
43814;BME280;29669;55.706;37.656;2023-03-19T08:00:45;101115.22;;;1.46;nan
43814;BME280;29669;55.706;37.656;2023-03-19T08:03:14;101115.53;;;1.57;nan
43814;BME280;29669;55.706;37.656;2023-03-19T08:05:42;101109.31;;;1.63;nan
43814;BME280;29669;55.706;37.656;2023-03-19T08:08:09;101109.09;;;1.67;nan
43814;BME280;29669;55.706;37.656;2023-03-19T08:10:37;101102.78;;;1.74;nan
43814;BME280;29669;55.706;37.656;2023-03-19T08:13:05;101103.22;;;1.82;nan
43814;BME280;29669;55.706;37.656;2023-03-19T08:15:33;101097.81;;;1.88;nan
43814;BME280;29669;55.706;37.656;2023-03-19T08:18:03;101094.03;;;1.96;nan
43814;BME280;29669;55.706;37.656;2023-03-19T08:20:31;101093.06;;;1.98;nan
43814;BME280;29669;55.706;37.656;2023-03-19T08:23:00;101087.09;;;1.98;nan
43814;BME280;29669;55.706;37.656;2023-03-19T08:25:27;101089.22;;;2.07;nan
43814;BME280;29669;55.706;37.656;2023-03-19T08:27:59;101082.81;;;2.15;nan
43814;BME280;29669;55.706;37.656;2023-03-19T08:30:27;101073.22;;;2.19;nan
43814;BME280;29669;55.706;37.656;2023-03-19T08:32:55;101075.56;;;2.23;nan
43814;BME280;29669;55.706;37.656;2023-03-19T08:35:24;101070.28;;;2.26;nan
43814;BME280;29669;55.706;37.656;2023-03-19T08:37:54;101070.94;;;2.30;nan
43814;BME280;29669;55.706;37.656;2023-03-19T08:40:22;101053.75;;;2.32;nan
43814;BME280;29669;55.706;37.656;2023-03-19T08:42:50;101060.38;;;2.36;nan
43814;BME280;29669;55.706;37.656;2023-03-19T08:45:21;101049.97;;;2.39;nan
43814;BME280;29669;55.706;37.656;2023-03-19T08:47:49;101049.66;;;2.45;nan
43814;BME280;29669;55.706;37.656;2023-03-19T08:50:21;101040.72;;;2.52;nan
43814;BME280;29669;55.706;37.656;2023-03-19T08:52:48;101038.50;;;2.61;nan
43814;BME280;29669;55.706;37.656;2023-03-19T08:55:16;101042.47;;;2.67;nan
43814;BME280;29669;55.706;37.656;2023-03-19T08:57:44;101029.66;;;2.67;nan
43814;BME280;29669;55.706;37.656;2023-03-19T09:00:13;101039.03;;;2.68;nan
43814;BME280;29669;55.706;37.656;2023-03-19T09:02:43;101036.28;;;2.71;nan
43814;BME280;29669;55.706;37.656;2023-03-19T09:05:11;101016.69;;;2.70;nan
43814;BME280;29669;55.706;37.656;2023-03-19T09:07:39;101022.41;;;2.75;nan
43814;BME280;29669;55.706;37.656;2023-03-19T09:10:08;101014.63;;;2.76;nan
43814;BME280;29669;55.706;37.656;2023-03-19T09:12:35;101007.66;;;2.78;nan
43814;BME280;29669;55.706;37.656;2023-03-19T09:15:04;101001.38;;;2.84;nan
43814;BME280;29669;55.706;37.656;2023-03-19T09:17:33;101001.22;;;2.87;nan
43814;BME280;29669;55.706;37.656;2023-03-19T09:20:00;100994.09;;;2.92;nan
43814;BME280;29669;55.706;37.656;2023-03-19T09:22:28;100987.25;;;2.93;nan
43814;BME280;29669;55.706;37.656;2023-03-19T09:24:56;100983.69;;;2.95;nan
43814;BME280;29669;55.706;37.656;2023-03-19T09:27:24;100981.69;;;3.00;nan
43814;BME280;29669;55.706;37.656;2023-03-19T09:29:52;100979.59;;;3.07;nan
43814;BME280;29669;55.706;37.656;2023-03-19T09:32:19;100986.28;;;3.09;nan
43814;BME280;29669;55.706;37.656;2023-03-19T09:34:48;100990.75;;;3.21;nan
43814;BME280;29669;55.706;37.656;2023-03-19T09:37:15;100978.56;;;3.25;nan
43814;BME280;29669;55.706;37.656;2023-03-19T09:39:47;100984.00;;;3.34;nan
43814;BME280;29669;55.706;37.656;2023-03-19T09:45:13;100979.06;;;3.45;nan
43814;BME280;29669;55.706;37.656;2023-03-19T09:47:42;100976.81;;;3.55;nan
43814;BME280;29669;55.706;37.656;2023-03-19T09:50:30;100972.41;;;3.57;nan
43814;BME280;29669;55.706;37.656;2023-03-19T09:55:44;100968.84;;;3.59;nan
43814;BME280;29669;55.706;37.656;2023-03-19T09:58:27;100954.63;;;3.68;nan
43814;BME280;29669;55.706;37.656;2023-03-19T10:00:57;100965.19;;;3.77;nan
43814;BME280;29669;55.706;37.656;2023-03-19T10:14:34;100949.88;;;3.90;nan
43814;BME280;29669;55.706;37.656;2023-03-19T10:17:15;100947.59;;;3.86;nan
43814;BME280;29669;55.706;37.656;2023-03-19T10:19:51;100946.97;;;3.82;nan
43814;BME280;29669;55.706;37.656;2023-03-19T10:22:25;100941.97;;;3.79;nan
43814;BME280;29669;55.706;37.656;2023-03-19T10:24:56;100939.88;;;3.86;nan
43814;BME280;29669;55.706;37.656;2023-03-19T10:27:26;100950.69;;;3.91;nan
43814;BME280;29669;55.706;37.656;2023-03-19T10:29:57;100945.00;;;4.00;nan
43814;BME280;29669;55.706;37.656;2023-03-19T10:32:41;100946.22;;;4.08;nan
43814;BME280;29669;55.706;37.656;2023-03-19T10:35:36;100935.28;;;4.19;nan
43814;BME280;29669;55.706;37.656;2023-03-19T10:38:22;100936.84;;;4.21;nan
43814;BME280;29669;55.706;37.656;2023-03-19T10:44:02;100931.13;;;4.30;nan
43814;BME280;29669;55.706;37.656;2023-03-19T10:46:38;100927.97;;;4.39;nan
43814;BME280;29669;55.706;37.656;2023-03-19T10:49:12;100924.19;;;4.45;nan
43814;BME280;29669;55.706;37.656;2023-03-19T10:51:47;100930.53;;;4.53;nan
43814;BME280;29669;55.706;37.656;2023-03-19T10:54:23;100919.84;;;4.59;nan
43814;BME280;29669;55.706;37.656;2023-03-19T10:56:54;100918.81;;;4.62;nan
43814;BME280;29669;55.706;37.656;2023-03-19T10:59:24;100913.59;;;4.63;nan
43814;BME280;29669;55.706;37.656;2023-03-19T11:02:15;100911.09;;;4.62;nan
43814;BME280;29669;55.706;37.656;2023-03-19T11:04:44;100910.81;;;4.66;nan
43814;BME280;29669;55.706;37.656;2023-03-19T11:07:17;100903.63;;;4.71;nan
43814;BME280;29669;55.706;37.656;2023-03-19T11:09:50;100900.78;;;4.76;nan
43814;BME280;29669;55.706;37.656;2023-03-19T11:12:31;100903.06;;;4.81;nan
43814;BME280;29669;55.706;37.656;2023-03-19T11:15:21;100898.72;;;4.81;nan
43814;BME280;29669;55.706;37.656;2023-03-19T11:18:00;100891.94;;;4.80;nan
43814;BME280;29669;55.706;37.656;2023-03-19T11:20:35;100883.28;;;4.81;nan
43814;BME280;29669;55.706;37.656;2023-03-19T11:23:14;100873.72;;;4.83;nan
43814;BME280;29669;55.706;37.656;2023-03-19T11:25:50;100877.75;;;4.87;nan
43814;BME280;29669;55.706;37.656;2023-03-19T11:28:21;100870.66;;;4.91;nan
43814;BME280;29669;55.706;37.656;2023-03-19T11:31:14;100868.41;;;4.99;nan
43814;BME280;29669;55.706;37.656;2023-03-19T11:37:14;100869.88;;;5.15;nan
43814;BME280;29669;55.706;37.656;2023-03-19T11:40:13;100865.25;;;5.20;nan
43814;BME280;29669;55.706;37.656;2023-03-19T11:42:58;100868.34;;;5.25;nan
43814;BME280;29669;55.706;37.656;2023-03-19T11:46:03;100856.31;;;5.26;nan
43814;BME280;29669;55.706;37.656;2023-03-19T11:51:12;100859.91;;;5.23;nan
43814;BME280;29669;55.706;37.656;2023-03-19T11:54:05;100849.00;;;5.20;nan
43814;BME280;29669;55.706;37.656;2023-03-19T11:56:42;100852.59;;;5.17;nan
43814;BME280;29669;55.706;37.656;2023-03-19T12:05:31;100842.50;;;5.14;nan
43814;BME280;29669;55.706;37.656;2023-03-19T12:35:21;100789.56;;;5.48;nan
43814;BME280;29669;55.706;37.656;2023-03-19T12:38:08;100779.16;;;5.49;nan
43814;BME280;29669;55.706;37.656;2023-03-19T12:40:50;100777.03;;;5.92;nan
43814;BME280;29669;55.706;37.656;2023-03-19T12:43:27;100775.75;;;6.91;nan
43814;BME280;29669;55.706;37.656;2023-03-19T12:46:10;100769.28;;;7.74;nan
43814;BME280;29669;55.706;37.656;2023-03-19T12:48:45;100774.41;;;8.59;nan
43814;BME280;29669;55.706;37.656;2023-03-19T12:59:15;100759.34;;;10.32;nan
43814;BME280;29669;55.706;37.656;2023-03-19T13:01:58;100748.78;;;10.63;nan
43814;BME280;29669;55.706;37.656;2023-03-19T13:04:31;100746.56;;;10.87;nan
43814;BME280;29669;55.706;37.656;2023-03-19T13:07:04;100742.88;;;10.89;nan
43814;BME280;29669;55.706;37.656;2023-03-19T13:09:43;100741.06;;;10.99;nan
43814;BME280;29669;55.706;37.656;2023-03-19T13:12:24;100730.78;;;11.34;nan
43814;BME280;29669;55.706;37.656;2023-03-19T13:20:27;100711.78;;;12.75;nan
43814;BME280;29669;55.706;37.656;2023-03-19T13:23:02;100711.16;;;13.06;nan
43814;BME280;29669;55.706;37.656;2023-03-19T13:25:36;100706.72;;;13.33;nan
43814;BME280;29669;55.706;37.656;2023-03-19T13:28:19;100722.69;;;13.30;nan
43814;BME280;29669;55.706;37.656;2023-03-19T13:31:02;100723.13;;;13.25;nan
43814;BME280;29669;55.706;37.656;2023-03-19T13:33:33;100714.91;;;13.38;nan
43814;BME280;29669;55.706;37.656;2023-03-19T13:36:03;100714.97;;;13.62;nan
43814;BME280;29669;55.706;37.656;2023-03-19T13:38:49;100706.38;;;13.93;nan
43814;BME280;29669;55.706;37.656;2023-03-19T13:46:49;100702.94;;;14.25;nan
43814;BME280;29669;55.706;37.656;2023-03-19T13:51:48;100688.97;;;14.97;nan
43814;BME280;29669;55.706;37.656;2023-03-19T13:54:18;100690.81;;;14.96;nan
43814;BME280;29669;55.706;37.656;2023-03-19T13:57:10;100693.31;;;14.74;nan
43814;BME280;29669;55.706;37.656;2023-03-19T13:59:55;100697.19;;;14.86;nan
43814;BME280;29669;55.706;37.656;2023-03-19T14:05:06;100678.13;;;15.16;nan
43814;BME280;29669;55.706;37.656;2023-03-19T14:07:38;100683.63;;;15.29;nan
43814;BME280;29669;55.706;37.656;2023-03-19T14:10:21;100674.88;;;15.53;nan
43814;BME280;29669;55.706;37.656;2023-03-19T14:13:01;100669.25;;;15.64;nan
43814;BME280;29669;55.706;37.656;2023-03-19T14:15:31;100669.84;;;15.74;nan
43814;BME280;29669;55.706;37.656;2023-03-19T14:18:01;100671.16;;;15.70;nan
43814;BME280;29669;55.706;37.656;2023-03-19T14:23:25;100658.50;;;15.59;nan
43814;BME280;29669;55.706;37.656;2023-03-19T14:26:22;100655.28;;;15.41;nan
43814;BME280;29669;55.706;37.656;2023-03-19T14:31:51;100656.31;;;15.32;nan
43814;BME280;29669;55.706;37.656;2023-03-19T14:34:42;100651.72;;;15.42;nan
43814;BME280;29669;55.706;37.656;2023-03-19T14:37:28;100643.19;;;15.40;nan
43814;BME280;29669;55.706;37.656;2023-03-19T14:40:14;100649.53;;;15.15;nan
43814;BME280;29669;55.706;37.656;2023-03-19T14:43:45;100642.91;;;14.01;nan
43814;BME280;29669;55.706;37.656;2023-03-19T14:45:59;100647.50;;;13.91;nan
43814;BME280;29669;55.706;37.656;2023-03-19T14:56:50;100647.50;;;14.15;nan
43814;BME280;29669;55.706;37.656;2023-03-19T14:59:18;100634.78;;;13.96;nan
43814;BME280;29669;55.706;37.656;2023-03-19T15:01:49;100644.22;;;13.73;nan
43814;BME280;29669;55.706;37.656;2023-03-19T15:04:23;100642.41;;;13.65;nan
43814;BME280;29669;55.706;37.656;2023-03-19T15:06:57;100645.50;;;13.61;nan
43814;BME280;29669;55.706;37.656;2023-03-19T15:09:30;100644.25;;;13.23;nan
43814;BME280;29669;55.706;37.656;2023-03-19T15:12:34;100644.31;;;12.38;nan
43814;BME280;29669;55.706;37.656;2023-03-19T15:15:39;100651.69;;;11.82;nan
43814;BME280;29669;55.706;37.656;2023-03-19T15:18:15;100649.47;;;10.97;nan